sensor_id;sensor_type;location;lat;lon;timestamp;temperature;humidity
16158;DHT22;8184;60.256;18.694;2022-09-09T00:00:33;10.00;99.90
16158;DHT22;8184;60.256;18.694;2022-09-09T00:03:04;9.90;99.90
16158;DHT22;8184;60.256;18.694;2022-09-09T00:05:37;9.80;99.90
16158;DHT22;8184;60.256;18.694;2022-09-09T00:08:08;9.70;99.90
16158;DHT22;8184;60.256;18.694;2022-09-09T00:10:40;9.70;99.90
16158;DHT22;8184;60.256;18.694;2022-09-09T00:13:13;9.60;99.90
16158;DHT22;8184;60.256;18.694;2022-09-09T00:15:47;9.60;99.90
16158;DHT22;8184;60.256;18.694;2022-09-09T00:18:21;9.60;99.90
16158;DHT22;8184;60.256;18.694;2022-09-09T00:20:53;9.60;99.90
16158;DHT22;8184;60.256;18.694;2022-09-09T00:23:25;9.40;99.90
16158;DHT22;8184;60.256;18.694;2022-09-09T00:25:58;9.40;99.90
16158;DHT22;8184;60.256;18.694;2022-09-09T00:28:28;9.30;99.90
16158;DHT22;8184;60.256;18.694;2022-09-09T00:30:59;9.20;99.90
16158;DHT22;8184;60.256;18.694;2022-09-09T00:33:30;9.20;99.90
16158;DHT22;8184;60.256;18.694;2022-09-09T00:35:58;9.20;99.90
16158;DHT22;8184;60.256;18.694;2022-09-09T00:38:30;9.20;99.90
16158;DHT22;8184;60.256;18.694;2022-09-09T00:41:03;9.10;99.90
16158;DHT22;8184;60.256;18.694;2022-09-09T00:43:35;9.10;99.90
16158;DHT22;8184;60.256;18.694;2022-09-09T00:48:55;8.90;99.90
16158;DHT22;8184;60.256;18.694;2022-09-09T00:51:29;8.80;99.90
16158;DHT22;8184;60.256;18.694;2022-09-09T00:54:04;8.70;99.90
16158;DHT22;8184;60.256;18.694;2022-09-09T00:56:36;8.60;99.90
16158;DHT22;8184;60.256;18.694;2022-09-09T00:59:12;8.60;99.90
16158;DHT22;8184;60.256;18.694;2022-09-09T01:01:43;8.60;99.90
16158;DHT22;8184;60.256;18.694;2022-09-09T01:04:12;8.50;99.90
16158;DHT22;8184;60.256;18.694;2022-09-09T01:06:43;8.50;99.90
16158;DHT22;8184;60.256;18.694;2022-09-09T01:09:18;8.60;99.90
16158;DHT22;8184;60.256;18.694;2022-09-09T01:11:52;9.10;99.90
16158;DHT22;8184;60.256;18.694;2022-09-09T01:14:30;9.10;99.90
16158;DHT22;8184;60.256;18.694;2022-09-09T01:17:01;9.10;99.90
16158;DHT22;8184;60.256;18.694;2022-09-09T01:19:35;8.90;99.90
16158;DHT22;8184;60.256;18.694;2022-09-09T01:22:08;8.90;99.90
16158;DHT22;8184;60.256;18.694;2022-09-09T01:24:40;9.10;99.90
16158;DHT22;8184;60.256;18.694;2022-09-09T01:27:12;9.10;99.90
16158;DHT22;8184;60.256;18.694;2022-09-09T01:29:41;10.30;99.90
16158;DHT22;8184;60.256;18.694;2022-09-09T01:34:56;9.50;99.90
16158;DHT22;8184;60.256;18.694;2022-09-09T01:37:25;9.70;99.90
16158;DHT22;8184;60.256;18.694;2022-09-09T01:39:53;9.40;99.90
16158;DHT22;8184;60.256;18.694;2022-09-09T01:42:22;9.30;99.90
16158;DHT22;8184;60.256;18.694;2022-09-09T01:44:51;9.60;99.90
16158;DHT22;8184;60.256;18.694;2022-09-09T01:47:21;9.90;99.90
16158;DHT22;8184;60.256;18.694;2022-09-09T01:49:49;10.00;99.90
16158;DHT22;8184;60.256;18.694;2022-09-09T01:52:17;10.20;99.90
16158;DHT22;8184;60.256;18.694;2022-09-09T01:54:45;10.20;99.90
16158;DHT22;8184;60.256;18.694;2022-09-09T01:57:15;10.00;99.90
16158;DHT22;8184;60.256;18.694;2022-09-09T01:59:50;9.70;99.90
16158;DHT22;8184;60.256;18.694;2022-09-09T02:02:22;9.60;99.90
16158;DHT22;8184;60.256;18.694;2022-09-09T02:04:53;9.50;99.90
16158;DHT22;8184;60.256;18.694;2022-09-09T02:07:29;9.70;99.90
16158;DHT22;8184;60.256;18.694;2022-09-09T02:10:01;9.90;99.90
16158;DHT22;8184;60.256;18.694;2022-09-09T02:12:29;10.30;99.90
16158;DHT22;8184;60.256;18.694;2022-09-09T02:15:01;10.20;99.90
16158;DHT22;8184;60.256;18.694;2022-09-09T02:17:31;10.30;99.90
16158;DHT22;8184;60.256;18.694;2022-09-09T02:20:03;10.70;99.90
16158;DHT22;8184;60.256;18.694;2022-09-09T02:22:33;11.00;99.90
16158;DHT22;8184;60.256;18.694;2022-09-09T02:25:02;11.20;99.90
16158;DHT22;8184;60.256;18.694;2022-09-09T02:27:32;11.50;99.90
16158;DHT22;8184;60.256;18.694;2022-09-09T02:30:05;11.50;99.90
16158;DHT22;8184;60.256;18.694;2022-09-09T02:32:36;11.40;99.90
16158;DHT22;8184;60.256;18.694;2022-09-09T02:35:07;11.80;99.90
16158;DHT22;8184;60.256;18.694;2022-09-09T02:37:37;11.60;99.90
16158;DHT22;8184;60.256;18.694;2022-09-09T02:40:06;11.70;99.90
16158;DHT22;8184;60.256;18.694;2022-09-09T02:42:38;11.90;99.90
16158;DHT22;8184;60.256;18.694;2022-09-09T02:45:09;12.00;99.90
16158;DHT22;8184;60.256;18.694;2022-09-09T02:47:43;11.90;99.90
16158;DHT22;8184;60.256;18.694;2022-09-09T02:50:15;11.90;99.90
16158;DHT22;8184;60.256;18.694;2022-09-09T02:52:47;11.90;99.90
16158;DHT22;8184;60.256;18.694;2022-09-09T02:55:22;11.80;99.90
16158;DHT22;8184;60.256;18.694;2022-09-09T02:57:51;11.70;99.90
16158;DHT22;8184;60.256;18.694;2022-09-09T03:00:26;11.70;99.90
16158;DHT22;8184;60.256;18.694;2022-09-09T03:02:54;11.60;99.90
16158;DHT22;8184;60.256;18.694;2022-09-09T03:05:23;11.60;99.90
16158;DHT22;8184;60.256;18.694;2022-09-09T03:07:51;11.50;99.90
16158;DHT22;8184;60.256;18.694;2022-09-09T03:10:29;11.50;99.90
16158;DHT22;8184;60.256;18.694;2022-09-09T03:12:57;11.50;99.90
16158;DHT22;8184;60.256;18.694;2022-09-09T03:15:26;11.60;99.90
16158;DHT22;8184;60.256;18.694;2022-09-09T03:17:58;11.60;99.90
16158;DHT22;8184;60.256;18.694;2022-09-09T03:20:27;11.50;99.90
16158;DHT22;8184;60.256;18.694;2022-09-09T03:22:56;11.50;99.90
16158;DHT22;8184;60.256;18.694;2022-09-09T03:25:24;11.40;99.90
16158;DHT22;8184;60.256;18.694;2022-09-09T03:27:53;11.40;99.90
16158;DHT22;8184;60.256;18.694;2022-09-09T03:30:21;11.40;99.90
16158;DHT22;8184;60.256;18.694;2022-09-09T03:32:51;11.30;99.90
16158;DHT22;8184;60.256;18.694;2022-09-09T03:35:19;11.30;99.90
16158;DHT22;8184;60.256;18.694;2022-09-09T03:37:49;11.30;99.90
16158;DHT22;8184;60.256;18.694;2022-09-09T03:40:17;11.20;99.90
16158;DHT22;8184;60.256;18.694;2022-09-09T03:42:46;11.20;99.90
16158;DHT22;8184;60.256;18.694;2022-09-09T03:45:14;11.20;99.90
16158;DHT22;8184;60.256;18.694;2022-09-09T03:47:42;11.20;99.90
16158;DHT22;8184;60.256;18.694;2022-09-09T03:50:12;11.10;99.90
16158;DHT22;8184;60.256;18.694;2022-09-09T03:52:40;11.10;99.90
16158;DHT22;8184;60.256;18.694;2022-09-09T03:55:08;11.10;99.90
16158;DHT22;8184;60.256;18.694;2022-09-09T03:57:37;10.90;99.90
16158;DHT22;8184;60.256;18.694;2022-09-09T04:00:05;10.70;99.90
16158;DHT22;8184;60.256;18.694;2022-09-09T04:02:34;10.60;99.90
16158;DHT22;8184;60.256;18.694;2022-09-09T04:05:02;10.50;99.90
16158;DHT22;8184;60.256;18.694;2022-09-09T04:07:32;10.50;99.90
16158;DHT22;8184;60.256;18.694;2022-09-09T04:10:00;10.50;99.90
16158;DHT22;8184;60.256;18.694;2022-09-09T04:12:31;10.50;99.90
16158;DHT22;8184;60.256;18.694;2022-09-09T04:14:59;10.50;99.90
16158;DHT22;8184;60.256;18.694;2022-09-09T04:17:28;10.40;99.90
16158;DHT22;8184;60.256;18.694;2022-09-09T04:19:56;10.40;99.90
16158;DHT22;8184;60.256;18.694;2022-09-09T04:22:25;10.30;99.90
16158;DHT22;8184;60.256;18.694;2022-09-09T04:24:54;10.20;99.90
16158;DHT22;8184;60.256;18.694;2022-09-09T04:27:22;10.30;99.90
16158;DHT22;8184;60.256;18.694;2022-09-09T04:29:50;10.30;99.90
16158;DHT22;8184;60.256;18.694;2022-09-09T04:32:19;10.30;99.90
16158;DHT22;8184;60.256;18.694;2022-09-09T04:34:48;10.40;99.90
16158;DHT22;8184;60.256;18.694;2022-09-09T04:37:16;10.30;99.90
16158;DHT22;8184;60.256;18.694;2022-09-09T04:39:43;10.40;99.90
16158;DHT22;8184;60.256;18.694;2022-09-09T04:42:13;10.40;99.90
16158;DHT22;8184;60.256;18.694;2022-09-09T04:44:43;10.60;99.90
16158;DHT22;8184;60.256;18.694;2022-09-09T04:47:11;11.20;99.90
16158;DHT22;8184;60.256;18.694;2022-09-09T04:49:40;11.50;99.90
16158;DHT22;8184;60.256;18.694;2022-09-09T04:52:08;11.70;99.90
16158;DHT22;8184;60.256;18.694;2022-09-09T04:54:36;11.90;99.90
16158;DHT22;8184;60.256;18.694;2022-09-09T04:57:05;12.00;99.90
16158;DHT22;8184;60.256;18.694;2022-09-09T04:59:38;13.20;99.90
16158;DHT22;8184;60.256;18.694;2022-09-09T05:02:06;11.90;99.90
16158;DHT22;8184;60.256;18.694;2022-09-09T05:04:45;12.30;99.90
16158;DHT22;8184;60.256;18.694;2022-09-09T05:07:13;12.30;99.90
16158;DHT22;8184;60.256;18.694;2022-09-09T05:09:41;12.20;99.90
16158;DHT22;8184;60.256;18.694;2022-09-09T05:12:09;12.50;99.90
16158;DHT22;8184;60.256;18.694;2022-09-09T05:14:39;12.40;99.90
16158;DHT22;8184;60.256;18.694;2022-09-09T05:17:07;12.50;99.90
16158;DHT22;8184;60.256;18.694;2022-09-09T05:19:35;12.50;99.90
16158;DHT22;8184;60.256;18.694;2022-09-09T05:22:04;12.50;99.90
16158;DHT22;8184;60.256;18.694;2022-09-09T05:24:32;12.50;99.90
16158;DHT22;8184;60.256;18.694;2022-09-09T05:27:00;12.60;99.90
16158;DHT22;8184;60.256;18.694;2022-09-09T05:29:29;12.60;99.90
16158;DHT22;8184;60.256;18.694;2022-09-09T05:32:01;12.60;99.90
16158;DHT22;8184;60.256;18.694;2022-09-09T05:34:29;12.70;99.90
16158;DHT22;8184;60.256;18.694;2022-09-09T05:36:58;12.60;99.90
16158;DHT22;8184;60.256;18.694;2022-09-09T05:39:26;12.70;99.90
16158;DHT22;8184;60.256;18.694;2022-09-09T05:41:54;12.60;99.90
16158;DHT22;8184;60.256;18.694;2022-09-09T05:44:23;12.60;99.90
16158;DHT22;8184;60.256;18.694;2022-09-09T05:46:54;12.60;99.90
16158;DHT22;8184;60.256;18.694;2022-09-09T05:49:24;12.60;99.90
16158;DHT22;8184;60.256;18.694;2022-09-09T05:51:52;12.60;99.90
16158;DHT22;8184;60.256;18.694;2022-09-09T05:54:20;12.70;99.90
16158;DHT22;8184;60.256;18.694;2022-09-09T05:56:48;12.70;99.90
16158;DHT22;8184;60.256;18.694;2022-09-09T05:59:19;12.70;99.90
16158;DHT22;8184;60.256;18.694;2022-09-09T06:01:47;12.70;99.90
16158;DHT22;8184;60.256;18.694;2022-09-09T06:04:15;12.70;99.90
16158;DHT22;8184;60.256;18.694;2022-09-09T06:06:45;12.60;99.90
16158;DHT22;8184;60.256;18.694;2022-09-09T06:09:13;12.70;99.90
16158;DHT22;8184;60.256;18.694;2022-09-09T06:11:42;12.70;99.90
16158;DHT22;8184;60.256;18.694;2022-09-09T06:14:10;12.70;99.90
16158;DHT22;8184;60.256;18.694;2022-09-09T06:16:38;12.70;99.90
16158;DHT22;8184;60.256;18.694;2022-09-09T06:19:09;12.60;99.90
16158;DHT22;8184;60.256;18.694;2022-09-09T06:21:38;12.60;99.90
16158;DHT22;8184;60.256;18.694;2022-09-09T06:24:10;12.60;99.90
16158;DHT22;8184;60.256;18.694;2022-09-09T06:26:40;12.70;99.90
16158;DHT22;8184;60.256;18.694;2022-09-09T06:29:11;12.70;99.90
16158;DHT22;8184;60.256;18.694;2022-09-09T06:31:39;12.70;99.90
16158;DHT22;8184;60.256;18.694;2022-09-09T06:34:08;12.80;99.90
16158;DHT22;8184;60.256;18.694;2022-09-09T06:36:37;12.80;99.90
16158;DHT22;8184;60.256;18.694;2022-09-09T06:39:10;12.80;99.90
16158;DHT22;8184;60.256;18.694;2022-09-09T06:41:40;12.90;99.90
16158;DHT22;8184;60.256;18.694;2022-09-09T06:44:09;13.00;99.90
16158;DHT22;8184;60.256;18.694;2022-09-09T06:46:38;13.10;99.90
16158;DHT22;8184;60.256;18.694;2022-09-09T06:49:07;13.20;99.90
16158;DHT22;8184;60.256;18.694;2022-09-09T06:51:35;13.20;99.90
16158;DHT22;8184;60.256;18.694;2022-09-09T06:54:11;13.30;99.90
16158;DHT22;8184;60.256;18.694;2022-09-09T06:56:39;14.20;99.90
16158;DHT22;8184;60.256;18.694;2022-09-09T06:59:10;13.40;99.90
16158;DHT22;8184;60.256;18.694;2022-09-09T07:01:39;13.50;99.90
16158;DHT22;8184;60.256;18.694;2022-09-09T07:04:08;13.50;99.90
16158;DHT22;8184;60.256;18.694;2022-09-09T07:06:38;13.60;99.90
16158;DHT22;8184;60.256;18.694;2022-09-09T07:09:07;13.60;99.90
16158;DHT22;8184;60.256;18.694;2022-09-09T07:11:38;13.70;99.90
16158;DHT22;8184;60.256;18.694;2022-09-09T07:14:07;13.70;99.90
16158;DHT22;8184;60.256;18.694;2022-09-09T07:16:36;13.80;99.90
16158;DHT22;8184;60.256;18.694;2022-09-09T07:19:05;13.80;99.90
16158;DHT22;8184;60.256;18.694;2022-09-09T07:21:33;13.80;99.90
16158;DHT22;8184;60.256;18.694;2022-09-09T07:24:01;13.80;99.90
16158;DHT22;8184;60.256;18.694;2022-09-09T07:26:31;13.80;99.90
16158;DHT22;8184;60.256;18.694;2022-09-09T07:29:01;13.80;99.90
16158;DHT22;8184;60.256;18.694;2022-09-09T07:31:30;13.80;99.90
16158;DHT22;8184;60.256;18.694;2022-09-09T07:34:03;13.90;99.90
16158;DHT22;8184;60.256;18.694;2022-09-09T07:36:31;13.90;99.90
16158;DHT22;8184;60.256;18.694;2022-09-09T07:39:00;13.90;99.90
16158;DHT22;8184;60.256;18.694;2022-09-09T07:41:31;14.00;99.90
16158;DHT22;8184;60.256;18.694;2022-09-09T07:44:05;14.00;99.90
16158;DHT22;8184;60.256;18.694;2022-09-09T07:46:34;14.00;99.90
16158;DHT22;8184;60.256;18.694;2022-09-09T07:49:05;14.00;99.90
16158;DHT22;8184;60.256;18.694;2022-09-09T07:51:34;14.00;99.90
16158;DHT22;8184;60.256;18.694;2022-09-09T07:54:03;14.00;99.90
16158;DHT22;8184;60.256;18.694;2022-09-09T07:56:32;13.90;99.90
16158;DHT22;8184;60.256;18.694;2022-09-09T07:59:00;13.90;99.90
16158;DHT22;8184;60.256;18.694;2022-09-09T08:01:35;13.90;99.90
16158;DHT22;8184;60.256;18.694;2022-09-09T08:04:06;13.90;99.90
16158;DHT22;8184;60.256;18.694;2022-09-09T08:06:36;13.90;99.90
16158;DHT22;8184;60.256;18.694;2022-09-09T08:09:08;13.80;99.90
16158;DHT22;8184;60.256;18.694;2022-09-09T08:11:36;13.90;99.90
16158;DHT22;8184;60.256;18.694;2022-09-09T08:14:05;13.90;99.90
16158;DHT22;8184;60.256;18.694;2022-09-09T08:16:36;13.90;99.90
16158;DHT22;8184;60.256;18.694;2022-09-09T08:19:05;13.90;99.90
16158;DHT22;8184;60.256;18.694;2022-09-09T08:21:34;14.00;99.90
16158;DHT22;8184;60.256;18.694;2022-09-09T08:24:03;14.00;99.90
16158;DHT22;8184;60.256;18.694;2022-09-09T08:26:33;13.90;99.90
16158;DHT22;8184;60.256;18.694;2022-09-09T08:29:02;13.90;99.90
16158;DHT22;8184;60.256;18.694;2022-09-09T08:31:32;13.90;99.90
16158;DHT22;8184;60.256;18.694;2022-09-09T08:34:02;13.90;99.90
16158;DHT22;8184;60.256;18.694;2022-09-09T08:36:31;13.90;99.90
16158;DHT22;8184;60.256;18.694;2022-09-09T08:39:00;13.80;99.90
16158;DHT22;8184;60.256;18.694;2022-09-09T08:44:27;13.80;99.90
16158;DHT22;8184;60.256;18.694;2022-09-09T08:47:01;13.80;99.90
16158;DHT22;8184;60.256;18.694;2022-09-09T08:49:51;13.80;99.90
16158;DHT22;8184;60.256;18.694;2022-09-09T08:52:27;13.80;99.90
16158;DHT22;8184;60.256;18.694;2022-09-09T08:54:57;13.80;99.90
16158;DHT22;8184;60.256;18.694;2022-09-09T08:57:26;13.80;99.90
16158;DHT22;8184;60.256;18.694;2022-09-09T08:59:55;13.90;99.90
16158;DHT22;8184;60.256;18.694;2022-09-09T09:02:25;13.90;99.90
16158;DHT22;8184;60.256;18.694;2022-09-09T09:04:58;14.00;99.90
16158;DHT22;8184;60.256;18.694;2022-09-09T09:07:31;14.10;99.90
16158;DHT22;8184;60.256;18.694;2022-09-09T09:10:11;14.10;99.90
16158;DHT22;8184;60.256;18.694;2022-09-09T09:13:01;14.20;99.90
16158;DHT22;8184;60.256;18.694;2022-09-09T09:15:31;14.30;99.90
16158;DHT22;8184;60.256;18.694;2022-09-09T09:18:03;14.30;99.90
16158;DHT22;8184;60.256;18.694;2022-09-09T09:20:35;14.40;99.90
16158;DHT22;8184;60.256;18.694;2022-09-09T09:23:05;14.40;99.90
16158;DHT22;8184;60.256;18.694;2022-09-09T09:25:35;14.40;99.90
16158;DHT22;8184;60.256;18.694;2022-09-09T09:28:10;14.30;99.90
16158;DHT22;8184;60.256;18.694;2022-09-09T09:30:44;14.30;99.90
16158;DHT22;8184;60.256;18.694;2022-09-09T09:33:20;14.40;99.90
16158;DHT22;8184;60.256;18.694;2022-09-09T09:35:51;14.40;99.90
16158;DHT22;8184;60.256;18.694;2022-09-09T09:38:21;14.50;99.90
16158;DHT22;8184;60.256;18.694;2022-09-09T09:41:12;14.50;99.90
16158;DHT22;8184;60.256;18.694;2022-09-09T09:43:52;14.50;99.90
16158;DHT22;8184;60.256;18.694;2022-09-09T09:46:21;14.60;99.90
16158;DHT22;8184;60.256;18.694;2022-09-09T09:48:59;14.60;99.90
16158;DHT22;8184;60.256;18.694;2022-09-09T09:51:30;14.70;99.90
16158;DHT22;8184;60.256;18.694;2022-09-09T09:54:09;14.70;99.90
16158;DHT22;8184;60.256;18.694;2022-09-09T09:56:42;14.70;99.90
16158;DHT22;8184;60.256;18.694;2022-09-09T09:59:19;14.80;99.90
16158;DHT22;8184;60.256;18.694;2022-09-09T10:02:13;14.90;99.90
16158;DHT22;8184;60.256;18.694;2022-09-09T10:04:42;14.90;99.90
16158;DHT22;8184;60.256;18.694;2022-09-09T10:07:17;15.00;99.90
16158;DHT22;8184;60.256;18.694;2022-09-09T10:09:46;15.20;99.90
16158;DHT22;8184;60.256;18.694;2022-09-09T10:12:21;15.30;99.90
16158;DHT22;8184;60.256;18.694;2022-09-09T10:14:54;15.30;99.90
16158;DHT22;8184;60.256;18.694;2022-09-09T10:17:29;15.20;99.90
16158;DHT22;8184;60.256;18.694;2022-09-09T10:20:16;15.00;99.90
16158;DHT22;8184;60.256;18.694;2022-09-09T10:22:49;14.90;99.90
16158;DHT22;8184;60.256;18.694;2022-09-09T10:25:24;14.90;99.90
16158;DHT22;8184;60.256;18.694;2022-09-09T10:28:00;14.90;99.90
16158;DHT22;8184;60.256;18.694;2022-09-09T10:30:35;14.90;99.90
16158;DHT22;8184;60.256;18.694;2022-09-09T10:33:10;14.80;99.90
16158;DHT22;8184;60.256;18.694;2022-09-09T10:35:40;15.00;99.90
16158;DHT22;8184;60.256;18.694;2022-09-09T10:38:15;15.00;99.90
16158;DHT22;8184;60.256;18.694;2022-09-09T10:40:49;15.00;99.90
16158;DHT22;8184;60.256;18.694;2022-09-09T10:43:33;15.20;99.90
16158;DHT22;8184;60.256;18.694;2022-09-09T10:46:09;15.30;99.90
16158;DHT22;8184;60.256;18.694;2022-09-09T10:48:43;15.70;99.90
16158;DHT22;8184;60.256;18.694;2022-09-09T10:51:18;16.20;99.90
16158;DHT22;8184;60.256;18.694;2022-09-09T10:53:57;16.30;99.90
16158;DHT22;8184;60.256;18.694;2022-09-09T10:56:30;16.20;99.90
16158;DHT22;8184;60.256;18.694;2022-09-09T10:58:59;16.10;99.90
16158;DHT22;8184;60.256;18.694;2022-09-09T11:01:29;16.10;99.90
16158;DHT22;8184;60.256;18.694;2022-09-09T11:03:59;15.70;99.90
16158;DHT22;8184;60.256;18.694;2022-09-09T11:06:34;15.50;99.90
16158;DHT22;8184;60.256;18.694;2022-09-09T11:09:04;15.30;99.90
16158;DHT22;8184;60.256;18.694;2022-09-09T11:11:34;15.20;99.90
16158;DHT22;8184;60.256;18.694;2022-09-09T11:14:07;15.20;99.90
16158;DHT22;8184;60.256;18.694;2022-09-09T11:16:39;15.20;99.90
16158;DHT22;8184;60.256;18.694;2022-09-09T11:19:11;15.20;99.90
16158;DHT22;8184;60.256;18.694;2022-09-09T11:21:45;15.10;99.90
16158;DHT22;8184;60.256;18.694;2022-09-09T11:24:16;14.30;99.90
16158;DHT22;8184;60.256;18.694;2022-09-09T11:26:47;15.10;99.90
16158;DHT22;8184;60.256;18.694;2022-09-09T11:29:36;15.10;99.90
16158;DHT22;8184;60.256;18.694;2022-09-09T11:32:14;15.10;99.90
16158;DHT22;8184;60.256;18.694;2022-09-09T11:34:51;15.00;99.90
16158;DHT22;8184;60.256;18.694;2022-09-09T11:37:32;15.10;99.90
16158;DHT22;8184;60.256;18.694;2022-09-09T11:40:14;15.00;99.90
16158;DHT22;8184;60.256;18.694;2022-09-09T11:42:43;15.00;99.90
16158;DHT22;8184;60.256;18.694;2022-09-09T11:45:15;15.00;99.90
16158;DHT22;8184;60.256;18.694;2022-09-09T11:47:54;14.90;99.90
16158;DHT22;8184;60.256;18.694;2022-09-09T11:50:32;14.90;99.90
16158;DHT22;8184;60.256;18.694;2022-09-09T11:53:06;14.80;99.90
16158;DHT22;8184;60.256;18.694;2022-09-09T11:55:45;14.90;99.90
16158;DHT22;8184;60.256;18.694;2022-09-09T11:58:17;14.90;99.90
16158;DHT22;8184;60.256;18.694;2022-09-09T12:00:46;15.00;99.90
16158;DHT22;8184;60.256;18.694;2022-09-09T12:05:57;15.00;99.90
16158;DHT22;8184;60.256;18.694;2022-09-09T12:08:29;15.20;99.90
16158;DHT22;8184;60.256;18.694;2022-09-09T12:11:02;15.30;99.90
16158;DHT22;8184;60.256;18.694;2022-09-09T12:13:31;15.70;99.90
16158;DHT22;8184;60.256;18.694;2022-09-09T12:16:00;15.90;99.90
16158;DHT22;8184;60.256;18.694;2022-09-09T12:18:33;15.90;99.90
16158;DHT22;8184;60.256;18.694;2022-09-09T12:21:03;15.80;99.90
16158;DHT22;8184;60.256;18.694;2022-09-09T12:23:36;15.40;99.90
16158;DHT22;8184;60.256;18.694;2022-09-09T12:26:20;15.20;99.90
16158;DHT22;8184;60.256;18.694;2022-09-09T12:28:52;15.10;99.90
16158;DHT22;8184;60.256;18.694;2022-09-09T12:31:24;15.10;99.90
16158;DHT22;8184;60.256;18.694;2022-09-09T12:33:54;15.00;99.90
16158;DHT22;8184;60.256;18.694;2022-09-09T12:36:24;15.30;99.90
16158;DHT22;8184;60.256;18.694;2022-09-09T12:38:55;15.30;99.90
16158;DHT22;8184;60.256;18.694;2022-09-09T12:41:27;15.50;99.90
16158;DHT22;8184;60.256;18.694;2022-09-09T12:44:03;15.80;99.90
16158;DHT22;8184;60.256;18.694;2022-09-09T12:46:33;15.70;99.90
16158;DHT22;8184;60.256;18.694;2022-09-09T12:49:03;15.50;99.90
16158;DHT22;8184;60.256;18.694;2022-09-09T12:51:32;15.30;99.90
16158;DHT22;8184;60.256;18.694;2022-09-09T12:54:01;15.20;99.90
16158;DHT22;8184;60.256;18.694;2022-09-09T12:56:31;15.20;99.90
16158;DHT22;8184;60.256;18.694;2022-09-09T12:59:00;15.30;99.90
16158;DHT22;8184;60.256;18.694;2022-09-09T13:01:28;15.40;99.90
16158;DHT22;8184;60.256;18.694;2022-09-09T13:03:57;15.20;99.90
16158;DHT22;8184;60.256;18.694;2022-09-09T13:06:26;15.20;99.90
16158;DHT22;8184;60.256;18.694;2022-09-09T13:08:55;15.20;99.90
16158;DHT22;8184;60.256;18.694;2022-09-09T13:11:26;15.30;99.90
16158;DHT22;8184;60.256;18.694;2022-09-09T13:13:57;15.30;99.90
16158;DHT22;8184;60.256;18.694;2022-09-09T13:16:26;15.20;99.90
16158;DHT22;8184;60.256;18.694;2022-09-09T13:19:00;15.10;99.90
16158;DHT22;8184;60.256;18.694;2022-09-09T13:21:32;15.00;99.90
16158;DHT22;8184;60.256;18.694;2022-09-09T13:24:01;14.70;99.90
16158;DHT22;8184;60.256;18.694;2022-09-09T13:26:34;14.60;99.90
16158;DHT22;8184;60.256;18.694;2022-09-09T13:29:14;14.50;99.90
16158;DHT22;8184;60.256;18.694;2022-09-09T13:31:45;14.50;99.90
16158;DHT22;8184;60.256;18.694;2022-09-09T13:34:14;14.70;99.90
16158;DHT22;8184;60.256;18.694;2022-09-09T13:36:58;14.80;99.90
16158;DHT22;8184;60.256;18.694;2022-09-09T13:39:28;14.80;99.90
16158;DHT22;8184;60.256;18.694;2022-09-09T13:41:57;14.70;99.90
16158;DHT22;8184;60.256;18.694;2022-09-09T13:44:31;14.80;99.90
16158;DHT22;8184;60.256;18.694;2022-09-09T13:47:03;15.00;99.90
16158;DHT22;8184;60.256;18.694;2022-09-09T13:49:36;14.90;99.90
16158;DHT22;8184;60.256;18.694;2022-09-09T13:52:05;14.70;99.90
16158;DHT22;8184;60.256;18.694;2022-09-09T13:54:34;14.60;99.90
16158;DHT22;8184;60.256;18.694;2022-09-09T13:57:05;14.60;99.90
16158;DHT22;8184;60.256;18.694;2022-09-09T13:59:35;14.60;99.90
16158;DHT22;8184;60.256;18.694;2022-09-09T14:02:25;14.60;99.90
16158;DHT22;8184;60.256;18.694;2022-09-09T14:04:54;14.50;99.90
16158;DHT22;8184;60.256;18.694;2022-09-09T14:07:22;14.40;99.90
16158;DHT22;8184;60.256;18.694;2022-09-09T14:09:54;14.40;99.90
16158;DHT22;8184;60.256;18.694;2022-09-09T14:12:22;14.40;99.90
16158;DHT22;8184;60.256;18.694;2022-09-09T14:14:51;14.60;99.90
16158;DHT22;8184;60.256;18.694;2022-09-09T14:17:19;14.90;99.90
16158;DHT22;8184;60.256;18.694;2022-09-09T14:19:51;14.80;99.90
16158;DHT22;8184;60.256;18.694;2022-09-09T14:22:20;14.50;99.90
16158;DHT22;8184;60.256;18.694;2022-09-09T14:24:49;14.50;99.90
16158;DHT22;8184;60.256;18.694;2022-09-09T14:27:17;14.70;99.90
16158;DHT22;8184;60.256;18.694;2022-09-09T14:29:45;15.00;99.90
16158;DHT22;8184;60.256;18.694;2022-09-09T14:32:15;14.80;99.90
16158;DHT22;8184;60.256;18.694;2022-09-09T14:34:43;14.80;99.90
16158;DHT22;8184;60.256;18.694;2022-09-09T14:37:11;14.70;99.90
16158;DHT22;8184;60.256;18.694;2022-09-09T14:39:43;14.60;99.90
16158;DHT22;8184;60.256;18.694;2022-09-09T14:42:14;14.60;99.90
16158;DHT22;8184;60.256;18.694;2022-09-09T14:44:42;14.70;99.90
16158;DHT22;8184;60.256;18.694;2022-09-09T14:47:10;14.60;99.90
16158;DHT22;8184;60.256;18.694;2022-09-09T14:49:39;14.70;99.90
16158;DHT22;8184;60.256;18.694;2022-09-09T14:52:12;14.70;99.90
16158;DHT22;8184;60.256;18.694;2022-09-09T14:54:40;15.00;99.90
16158;DHT22;8184;60.256;18.694;2022-09-09T14:57:08;15.40;99.90
16158;DHT22;8184;60.256;18.694;2022-09-09T14:59:36;15.30;99.90
16158;DHT22;8184;60.256;18.694;2022-09-09T15:02:04;15.30;99.90
16158;DHT22;8184;60.256;18.694;2022-09-09T15:04:32;15.50;99.90
16158;DHT22;8184;60.256;18.694;2022-09-09T15:07:02;15.50;99.90
16158;DHT22;8184;60.256;18.694;2022-09-09T15:09:30;15.30;99.90
16158;DHT22;8184;60.256;18.694;2022-09-09T15:11:58;15.10;99.90
16158;DHT22;8184;60.256;18.694;2022-09-09T15:14:27;15.10;99.90
16158;DHT22;8184;60.256;18.694;2022-09-09T15:16:55;14.90;99.90
16158;DHT22;8184;60.256;18.694;2022-09-09T15:19:23;15.30;99.90
16158;DHT22;8184;60.256;18.694;2022-09-09T15:21:51;15.30;99.90
16158;DHT22;8184;60.256;18.694;2022-09-09T15:24:21;15.30;99.90
16158;DHT22;8184;60.256;18.694;2022-09-09T15:26:49;15.20;99.90
16158;DHT22;8184;60.256;18.694;2022-09-09T15:29:17;15.00;99.90
16158;DHT22;8184;60.256;18.694;2022-09-09T15:31:45;14.90;99.90
16158;DHT22;8184;60.256;18.694;2022-09-09T15:34:14;15.00;99.90
16158;DHT22;8184;60.256;18.694;2022-09-09T15:36:42;14.90;99.90
16158;DHT22;8184;60.256;18.694;2022-09-09T15:39:11;14.80;99.90
16158;DHT22;8184;60.256;18.694;2022-09-09T15:41:43;14.70;99.90
16158;DHT22;8184;60.256;18.694;2022-09-09T15:44:15;14.80;99.90
16158;DHT22;8184;60.256;18.694;2022-09-09T15:46:44;14.80;99.90
16158;DHT22;8184;60.256;18.694;2022-09-09T15:49:13;14.80;99.90
16158;DHT22;8184;60.256;18.694;2022-09-09T15:51:42;14.90;99.90
16158;DHT22;8184;60.256;18.694;2022-09-09T15:54:11;14.80;99.90
16158;DHT22;8184;60.256;18.694;2022-09-09T15:56:45;15.00;99.90
16158;DHT22;8184;60.256;18.694;2022-09-09T15:59:14;15.10;99.90
16158;DHT22;8184;60.256;18.694;2022-09-09T16:01:43;14.90;99.90
16158;DHT22;8184;60.256;18.694;2022-09-09T16:04:11;14.90;99.90
16158;DHT22;8184;60.256;18.694;2022-09-09T16:06:39;14.80;99.90